Time;durP1;ratioP1;P1;durP2;ratioP2;P2;SDS_P1;SDS_P2;PMS_P1;PMS_P2;Temp;Humidity;BMP_temperature;BMP_pressure;BME280_temperature;BME280_humidity;BME280_pressure;Samples;Min_cycle;Max_cycle;Signal;HPM_P1;HPM_P2
2022/03/10 00:01:31;;;;;;;29.58;17.80;;;;;;;0.38;60.03;96698.72;10269574;28;96941;-78
2022/03/10 00:06:34;;;;;;;32.10;17.55;;;;;;;0.34;59.48;96696.38;10276551;28;97303;-78
2022/03/10 00:11:37;;;;;;;33.13;18.38;;;;;;;0.38;59.72;96703.88;10270910;28;97522;-78
2022/03/10 00:16:41;;;;;;;32.47;18.92;;;;;;;0.30;60.28;96705.97;10279967;28;96788;-78
2022/03/10 00:21:44;;;;;;;30.02;17.27;;;;;;;0.15;60.35;96710.13;10272396;28;97120;-78
2022/03/10 00:26:48;;;;;;;27.17;15.63;;;;;;;0.08;61.32;96707.88;10271117;28;99632;-78
2022/03/10 00:31:52;;;;;;;24.75;14.23;;;;;;;0.05;61.38;96707.13;10281687;28;97126;-78
2022/03/10 00:36:55;;;;;;;24.40;14.32;;;;;;;0.07;61.38;96711.38;10287162;28;96843;-78
2022/03/10 00:41:58;;;;;;;25.40;14.45;;;;;;;0.13;61.92;96708.50;10273570;28;96852;-78
2022/03/10 00:47:02;;;;;;;28.27;15.45;;;;;;;0.13;62.48;96713.66;10283430;28;96855;-78
2022/03/10 00:52:06;;;;;;;28.75;15.60;;;;;;;0.05;61.90;96712.28;10280703;28;96928;-78
2022/03/10 00:57:08;;;;;;;29.35;17.15;;;;;;;-0.11;63.30;96721.59;10287921;28;97335;-78
2022/03/10 01:02:12;;;;;;;29.27;16.92;;;;;;;-0.19;63.48;96719.38;10266613;28;98977;-78
2022/03/10 01:07:16;;;;;;;28.10;15.57;;;;;;;-0.11;64.26;96716.47;10276608;28;96840;-78
2022/03/10 01:12:19;;;;;;;29.95;14.68;;;;;;;-0.08;63.20;96721.44;10275491;28;96701;-78
2022/03/10 01:17:23;;;;;;;27.08;14.32;;;;;;;-0.17;64.14;96711.59;10285307;28;96985;-78
2022/03/10 01:22:26;;;;;;;25.77;14.98;;;;;;;-0.15;63.27;96717.50;10284878;28;96894;-78
2022/03/10 01:27:29;;;;;;;25.33;14.60;;;;;;;-0.20;63.04;96717.72;10275650;28;96944;-78
2022/03/10 01:32:34;;;;;;;26.92;13.43;;;;;;;-0.26;62.00;96717.16;10289880;28;97125;-78
2022/03/10 01:37:37;;;;;;;23.48;13.60;;;;;;;-0.33;61.65;96722.56;10271898;28;97101;-78
2022/03/10 01:42:41;;;;;;;24.90;14.15;;;;;;;-0.35;62.21;96708.97;10276323;28;97138;-78
2022/03/10 01:47:45;;;;;;;25.33;13.45;;;;;;;-0.42;62.28;96714.47;10281798;28;97222;-78
2022/03/10 01:52:49;;;;;;;28.48;15.90;;;;;;;-0.49;62.72;96707.91;10278114;28;97065;-78
2022/03/10 01:57:52;;;;;;;24.98;13.32;;;;;;;-0.54;62.02;96713.25;10278351;28;97276;-78
2022/03/10 02:02:56;;;;;;;27.27;14.30;;;;;;;-0.62;62.37;96712.75;10289044;28;96844;-78
2022/03/10 02:13:23;;;;;;;25.15;13.32;;;;;;;-0.76;61.71;96703.09;10282903;28;96969;-78
2022/03/10 02:18:30;;;;;;;30.15;16.30;;;;;;;-0.82;62.85;96698.22;10278187;28;96897;-78
2022/03/10 02:23:34;;;;;;;28.42;16.33;;;;;;;-0.90;62.80;96701.13;10286956;28;97081;-78
2022/03/10 02:28:37;;;;;;;26.52;14.43;;;;;;;-0.89;61.65;96687.44;10292419;28;98815;-78
2022/03/10 02:33:40;;;;;;;25.20;13.98;;;;;;;-0.95;61.86;96687.69;10284443;28;97646;-78
2022/03/10 02:38:44;;;;;;;24.70;13.10;;;;;;;-1.02;60.38;96702.50;10287692;28;96943;-78
2022/03/10 02:43:47;;;;;;;26.05;13.75;;;;;;;-1.10;60.65;96694.28;10277696;28;98652;-78
2022/03/10 02:48:49;;;;;;;23.98;13.38;;;;;;;-1.12;61.03;96694.38;10284675;28;97252;-78
2022/03/10 02:53:54;;;;;;;28.40;14.77;;;;;;;-1.15;61.08;96697.06;10281424;28;96933;-78
2022/03/10 02:58:59;;;;;;;27.17;14.32;;;;;;;-1.18;61.97;96702.31;10283631;28;97210;-78
2022/03/10 03:04:02;;;;;;;26.30;14.43;;;;;;;-1.17;61.94;96698.84;10276575;28;96989;-78
2022/03/10 03:09:06;;;;;;;28.30;15.55;;;;;;;-1.21;62.17;96696.47;10269720;28;96906;-78
2022/03/10 03:14:09;;;;;;;29.02;15.25;;;;;;;-1.25;63.39;96695.78;10282977;28;97030;-78
2022/03/10 03:19:12;;;;;;;36.03;15.60;;;;;;;-1.29;62.55;96695.06;10267520;28;97667;-78
2022/03/10 03:24:16;;;;;;;25.40;14.13;;;;;;;-1.37;62.40;96691.16;10289958;28;96887;-78
2022/03/10 03:29:19;;;;;;;29.63;15.50;;;;;;;-1.41;62.40;96699.84;10282409;28;96898;-78
2022/03/10 03:34:24;;;;;;;28.80;16.25;;;;;;;-1.45;62.75;96696.59;10283082;28;97041;-78
2022/03/10 03:39:28;;;;;;;33.10;17.15;;;;;;;-1.58;63.74;96693.69;10275804;28;96921;-78
2022/03/10 03:44:32;;;;;;;28.95;14.48;;;;;;;-1.56;63.10;96691.91;10286596;28;98457;-78
2022/03/10 03:49:35;;;;;;;30.13;15.63;;;;;;;-1.51;63.36;96692.56;10271071;28;98569;-78
2022/03/10 03:54:39;;;;;;;28.17;15.20;;;;;;;-1.47;62.84;96685.56;10291467;28;97247;-78
2022/03/10 03:59:42;;;;;;;27.73;14.88;;;;;;;-1.53;62.95;96702.03;10274337;28;96965;-78
2022/03/10 04:04:47;;;;;;;23.52;12.75;;;;;;;-1.69;62.53;96701.84;10283352;28;97050;-78
2022/03/10 04:09:52;;;;;;;22.52;13.25;;;;;;;-1.76;61.40;96707.25;10281953;28;96918;-78
2022/03/10 04:14:54;;;;;;;25.13;14.63;;;;;;;-1.73;63.17;96700.25;10283239;28;97808;-78
2022/03/10 04:19:57;;;;;;;29.70;16.67;;;;;;;-1.80;63.57;96700.59;10284400;28;97729;-78
2022/03/10 04:25:01;;;;;;;25.92;15.82;;;;;;;-1.89;65.17;96702.59;10260461;28;96938;-78
2022/03/10 04:30:06;;;;;;;32.88;17.27;;;;;;;-1.90;64.14;96707.78;10285832;28;96916;-78
2022/03/10 04:35:10;;;;;;;33.20;16.80;;;;;;;-1.88;64.99;96711.16;10287060;28;97280;-78
2022/03/10 04:40:14;;;;;;;30.38;17.60;;;;;;;-1.96;65.89;96711.41;10279994;28;98568;-78
2022/03/10 04:45:17;;;;;;;32.78;17.50;;;;;;;-2.02;66.30;96706.56;10274042;28;96759;-78
2022/03/10 04:50:20;;;;;;;35.15;18.13;;;;;;;-1.97;65.93;96706.34;10285258;28;97161;-78
2022/03/10 04:55:24;;;;;;;32.72;17.48;;;;;;;-1.93;66.38;96697.69;10278793;28;96930;-78
2022/03/10 05:00:27;;;;;;;31.90;17.37;;;;;;;-1.94;66.19;96701.94;10287580;28;98562;-78
2022/03/10 05:05:30;;;;;;;28.63;16.15;;;;;;;-2.00;65.33;96698.78;10272987;28;97072;-78
2022/03/10 05:10:34;;;;;;;31.35;16.15;;;;;;;-2.11;64.63;96700.03;10281792;28;98143;-78
2022/03/10 05:15:37;;;;;;;31.17;16.55;;;;;;;-2.14;66.31;96700.19;10266111;28;96861;-78
2022/03/10 05:20:41;;;;;;;31.88;17.00;;;;;;;-2.19;65.89;96701.22;10277663;28;96864;-78
2022/03/10 05:25:45;;;;;;;30.65;16.42;;;;;;;-2.18;66.88;96701.16;10278718;28;97210;-78
2022/03/10 05:30:48;;;;;;;31.45;17.15;;;;;;;-2.16;67.60;96696.00;10272240;28;97210;-78
2022/03/10 05:35:51;;;;;;;28.25;15.75;;;;;;;-2.18;65.51;96692.66;10278639;28;96962;-78
2022/03/10 05:40:55;;;;;;;29.40;16.17;;;;;;;-2.28;65.19;96693.03;10280008;28;96916;-78
2022/03/10 05:45:58;;;;;;;26.02;14.93;;;;;;;-2.34;65.70;96694.97;10272021;28;96902;-78
2022/03/10 05:51:01;;;;;;;28.02;15.65;;;;;;;-2.33;65.88;96689.81;10283016;28;102378;-78
2022/03/10 05:56:05;;;;;;;35.17;18.20;;;;;;;-2.35;65.60;96701.81;10285263;28;96875;-79
2022/03/10 06:01:08;;;;;;;29.40;15.83;;;;;;;-2.45;64.98;96706.44;10279706;28;98284;-77
2022/03/10 06:06:13;;;;;;;29.50;17.00;;;;;;;-2.43;66.10;96702.09;10272391;28;97499;-78
2022/03/10 06:11:17;;;;;;;29.75;15.50;;;;;;;-2.46;64.95;96703.94;10274049;28;96819;-78
2022/03/10 06:16:21;;;;;;;28.83;14.70;;;;;;;-2.50;64.64;96707.50;10285084;28;97530;-78
2022/03/10 06:21:24;;;;;;;30.67;16.10;;;;;;;-2.51;64.80;96709.22;10278622;28;96852;-78
2022/03/10 06:26:28;;;;;;;25.95;14.68;;;;;;;-2.51;63.57;96716.06;10283471;28;97011;-78
2022/03/10 06:31:31;;;;;;;27.17;15.38;;;;;;;-2.51;63.29;96716.88;10286767;28;97648;-78
2022/03/10 06:36:34;;;;;;;33.78;16.55;;;;;;;-2.50;64.51;96712.63;10290270;28;97333;-78
2022/03/10 06:41:39;;;;;;;26.67;15.73;;;;;;;-2.43;63.35;96714.06;10276942;28;97132;-78
2022/03/10 06:46:42;;;;;;;27.92;14.50;;;;;;;-2.42;63.94;96714.00;10287206;28;97036;-77
2022/03/10 06:51:45;;;;;;;27.35;13.95;;;;;;;-2.38;62.78;96721.56;10258147;28;97754;-78
2022/03/10 06:56:52;;;;;;;27.05;14.60;;;;;;;-2.36;62.10;96719.78;10290090;28;97027;-78
2022/03/10 07:01:55;;;;;;;28.20;14.88;;;;;;;-2.27;61.51;96720.25;10291331;28;96932;-78
2022/03/10 07:06:59;;;;;;;27.48;15.55;;;;;;;-2.16;62.14;96732.69;10267448;28;96873;-78
2022/03/10 07:12:03;;;;;;;29.55;15.38;;;;;;;-2.05;61.74;96739.94;10273825;28;98251;-78
2022/03/10 07:17:06;;;;;;;32.58;17.33;;;;;;;-1.92;61.65;96745.44;10283792;28;104018;-78
2022/03/10 07:22:09;;;;;;;30.85;17.63;;;;;;;-1.71;61.73;96746.31;10276193;28;99527;-78
2022/03/10 07:27:14;;;;;;;29.33;17.15;;;;;;;-1.61;61.46;96741.69;10289405;28;96870;-78
2022/03/10 07:32:17;;;;;;;31.63;18.20;;;;;;;-1.57;60.40;96741.50;10271516;28;98167;-78
2022/03/10 07:37:20;;;;;;;33.95;17.70;;;;;;;-1.41;60.64;96741.72;10280940;28;97818;-78
2022/03/10 07:42:24;;;;;;;33.47;18.85;;;;;;;-1.30;60.24;96738.72;10284668;28;97025;-78
2022/03/10 07:47:27;;;;;;;37.22;20.70;;;;;;;-1.02;62.01;96740.94;10290436;28;96979;-78
2022/03/10 07:52:31;;;;;;;33.00;19.38;;;;;;;-0.78;60.87;96735.69;10286584;28;97372;-78
2022/03/10 07:57:35;;;;;;;36.78;20.65;;;;;;;-0.50;60.89;96730.19;10286298;28;96819;-78
2022/03/10 08:02:40;;;;;;;36.08;21.33;;;;;;;-0.27;60.92;96730.88;10282268;28;98671;-78
2022/03/10 08:07:43;;;;;;;35.72;20.13;;;;;;;-0.17;60.94;96732.13;10286566;28;96923;-78
2022/03/10 08:12:47;;;;;;;37.88;21.17;;;;;;;-0.10;61.95;96736.09;10286326;28;97708;-78
2022/03/10 08:17:54;;;;;;;30.02;18.30;;;;;;;0.02;60.89;96737.28;10287255;28;98016;-78
2022/03/10 08:22:57;;;;;;;36.15;19.58;;;;;;;0.15;60.89;96727.25;10284833;28;97921;-78
2022/03/10 08:28:02;;;;;;;33.80;19.52;;;;;;;0.24;60.58;96716.56;10273386;28;96758;-78
2022/03/10 08:33:05;;;;;;;36.30;21.10;;;;;;;0.39;61.70;96720.13;10286518;28;99517;-78
2022/03/10 08:38:09;;;;;;;36.60;20.48;;;;;;;0.52;60.58;96721.19;10285271;28;96983;-78
2022/03/10 08:43:13;;;;;;;39.78;21.50;;;;;;;0.60;60.97;96719.09;10286416;28;97219;-77
2022/03/10 08:48:16;;;;;;;44.30;23.33;;;;;;;0.75;60.82;96712.34;10279303;28;96877;-78
2022/03/10 08:53:19;;;;;;;37.55;21.88;;;;;;;0.93;61.65;96709.78;10275883;28;97333;-77
2022/03/10 08:58:25;;;;;;;42.13;22.45;;;;;;;1.07;61.32;96714.22;10277947;28;96929;-77
2022/03/10 09:03:27;;;;;;;41.47;24.58;;;;;;;1.19;61.90;96695.56;10286295;28;96945;-77
2022/03/10 09:08:32;;;;;;;36.35;22.00;;;;;;;1.37;61.58;96694.63;10283817;28;97305;-77
2022/03/10 09:13:36;;;;;;;38.22;21.90;;;;;;;1.50;61.72;96694.00;10284558;28;97115;-78
2022/03/10 09:18:39;;;;;;;42.72;24.02;;;;;;;1.72;62.62;96688.53;10275187;28;96772;-78
2022/03/10 09:23:42;;;;;;;36.75;21.45;;;;;;;2.00;61.75;96687.88;10264057;28;96813;-77
2022/03/10 09:28:46;;;;;;;38.95;22.58;;;;;;;2.13;61.63;96688.88;10284169;28;101379;-78
2022/03/10 09:33:50;;;;;;;35.33;22.10;;;;;;;2.22;61.14;96674.63;10286305;28;97107;-77
2022/03/10 09:38:53;;;;;;;38.70;22.33;;;;;;;2.42;60.88;96667.53;10278757;28;99602;-78
2022/03/10 09:43:59;;;;;;;40.55;23.50;;;;;;;2.61;61.01;96669.88;10289323;28;97282;-78
2022/03/10 09:49:02;;;;;;;40.10;24.35;;;;;;;2.72;61.53;96666.69;10289774;28;96855;-78
2022/03/10 09:54:05;;;;;;;42.25;23.13;;;;;;;2.99;61.35;96652.16;10292513;28;97919;-79
2022/03/10 09:59:10;;;;;;;41.13;25.15;;;;;;;3.14;61.53;96659.94;10287501;28;97001;-78
2022/03/10 10:04:15;;;;;;;41.72;24.05;;;;;;;3.38;61.29;96662.78;10289299;28;98705;-78
2022/03/10 10:09:21;;;;;;;36.67;23.15;;;;;;;3.53;60.85;96661.00;10283059;28;96808;-78
2022/03/10 10:14:37;;;;;;;39.30;22.48;;;;;;;3.71;60.89;96646.97;10271233;28;97541;-78
2022/03/10 10:19:41;;;;;;;37.95;21.73;;;;;;;3.93;60.15;96654.19;10279501;28;97960;-78
2022/03/10 10:25:06;;;;;;;39.77;22.83;;;;;;;4.18;59.45;96644.91;10264871;28;98514;-79
2022/03/10 10:30:28;;;;;;;;;;;;;;;;;;;;;
2022/03/10 10:36:11;;;;;;;37.78;23.10;;;;;;;4.58;59.37;96632.78;10266025;28;98371;-78
2022/03/10 10:41:19;;;;;;;35.38;21.38;;;;;;;4.73;58.80;96627.50;10274264;28;97784;-78
2022/03/10 10:46:35;;;;;;;40.47;22.88;;;;;;;4.95;58.51;96621.75;10278583;28;97195;-79
2022/03/10 10:51:40;;;;;;;39.53;23.83;;;;;;;5.11;58.37;96617.19;10291297;28;96728;-79
2022/03/10 10:56:47;;;;;;;35.40;22.13;;;;;;;5.33;57.84;96619.13;10280596;28;96859;-78
2022/03/10 11:01:52;;;;;;;42.30;23.55;;;;;;;5.54;57.70;96608.19;10272486;28;98609;-78
2022/03/10 11:06:55;;;;;;;41.13;24.13;;;;;;;5.77;57.31;96597.97;10284423;28;96840;-79
2022/03/10 11:11:58;;;;;;;40.50;24.25;;;;;;;6.05;56.67;96591.63;10272337;28;97515;-78
2022/03/10 11:17:03;;;;;;;40.78;23.45;;;;;;;6.28;56.64;96588.19;10273865;28;98891;-78
2022/03/10 11:22:19;;;;;;;40.20;22.23;;;;;;;6.44;55.70;96582.69;10280199;28;96902;-79
2022/03/10 11:27:25;;;;;;;38.60;23.27;;;;;;;6.60;55.64;96578.97;10280485;28;99255;-78
2022/03/10 11:32:30;;;;;;;37.28;23.00;;;;;;;6.77;55.39;96573.31;10281683;28;98260;-79
2022/03/10 11:37:38;;;;;;;38.17;22.67;;;;;;;6.88;55.00;96569.09;10274135;28;98125;-78
2022/03/10 11:42:43;;;;;;;43.05;23.83;;;;;;;7.04;54.32;96567.00;10261817;28;96961;-79
2022/03/10 11:47:49;;;;;;;40.90;24.15;;;;;;;7.15;54.10;96548.81;10271407;28;98342;-78
2022/03/10 11:52:55;;;;;;;41.22;23.70;;;;;;;7.31;53.57;96547.63;10285395;28;97428;-78
2022/03/10 11:58:05;;;;;;;41.55;24.42;;;;;;;7.58;53.35;96542.88;10260372;28;101283;-78
2022/03/10 12:03:09;;;;;;;39.42;23.73;;;;;;;7.78;52.44;96537.84;10280814;28;97066;-78
2022/03/10 12:08:18;;;;;;;42.10;23.33;;;;;;;7.95;52.49;96529.50;10270853;28;98061;-78
2022/03/10 12:13:27;;;;;;;44.17;24.35;;;;;;;8.13;52.13;96526.34;10274000;28;99288;-78
2022/03/10 12:18:41;;;;;;;42.63;25.38;;;;;;;8.23;51.35;96510.81;10275073;28;98747;-79
2022/03/10 12:23:52;;;;;;;41.78;25.15;;;;;;;8.43;51.48;96511.75;10283052;28;98478;-78
2022/03/10 12:28:57;;;;;;;46.15;24.48;;;;;;;8.59;50.91;96506.94;10270848;28;98527;-78
2022/03/10 12:34:03;;;;;;;42.22;24.15;;;;;;;8.77;50.99;96495.91;10277127;28;98438;-78
2022/03/10 12:39:09;;;;;;;36.00;23.13;;;;;;;8.98;50.58;96488.03;10283684;28;96902;-78
2022/03/10 12:44:13;;;;;;;40.58;24.02;;;;;;;9.23;50.43;96484.16;10282739;28;97849;-79
2022/03/10 12:49:27;;;;;;;41.17;23.93;;;;;;;9.54;49.78;96473.66;10262826;28;97632;-79
2022/03/10 12:54:30;;;;;;;35.78;22.05;;;;;;;9.75;49.30;96469.16;10275155;28;96993;-79
2022/03/10 12:59:35;;;;;;;38.63;21.80;;;;;;;9.95;48.71;96459.53;10272574;28;97246;-79
2022/03/10 13:04:46;;;;;;;;;;;;;;;10.09;49.41;96450.47;10271363;28;97786;-78
2022/03/10 13:09:53;;;;;;;36.83;22.02;;;;;;;10.22;48.29;96445.78;10280813;28;98810;-79
2022/03/10 13:14:57;;;;;;;35.53;20.85;;;;;;;10.36;47.71;96435.84;10272337;28;96875;-78
2022/03/10 13:20:01;;;;;;;35.60;20.73;;;;;;;10.64;47.24;96428.88;10266885;28;97632;-78
2022/03/10 13:25:05;;;;;;;33.87;21.90;;;;;;;10.85;47.05;96428.66;10271499;28;101259;-79
2022/03/10 13:30:09;;;;;;;38.75;21.77;;;;;;;10.99;46.80;96428.16;10270863;28;97142;-78
2022/03/10 13:35:14;;;;;;;35.05;21.10;;;;;;;11.13;46.75;96418.19;10269160;28;98362;-78
2022/03/10 13:40:18;;;;;;;38.25;21.10;;;;;;;11.38;46.08;96415.88;10275676;28;96897;-79
2022/03/10 13:45:22;;;;;;;33.50;21.13;;;;;;;11.74;45.34;96412.31;10270125;28;97145;-78
2022/03/10 13:50:28;;;;;;;34.63;20.80;;;;;;;12.16;44.75;96409.97;10284402;28;97041;-79
2022/03/10 13:55:33;;;;;;;34.45;20.95;;;;;;;12.50;43.97;96397.75;10281926;28;97005;-79
2022/03/10 14:00:37;;;;;;;35.63;20.25;;;;;;;12.87;43.28;96395.78;10286129;28;96815;-79
2022/03/10 14:05:44;;;;;;;39.47;23.13;;;;;;;13.10;42.22;96388.19;10274968;28;98909;-79
2022/03/10 14:11:02;;;;;;;37.45;22.95;;;;;;;13.55;42.32;96381.72;10268977;28;98596;-79
2022/03/10 14:16:07;;;;;;;37.78;24.08;;;;;;;14.03;41.82;96383.69;10272726;28;97274;-79
2022/03/10 14:21:15;;;;;;;34.53;22.83;;;;;;;14.35;41.18;96370.53;10286652;28;98415;-79
2022/03/10 14:26:20;;;;;;;36.33;23.67;;;;;;;14.67;40.36;96365.34;10282700;28;96828;-79
2022/03/10 14:31:24;;;;;;;;;;;;;;;15.02;40.93;96364.03;10264681;28;96906;-79
2022/03/10 14:36:29;;;;;;;44.50;24.77;;;;;;;15.37;39.85;96361.03;10275631;28;97617;-79
2022/03/10 14:41:34;;;;;;;40.88;25.42;;;;;;;15.75;39.35;96353.22;10274117;28;97951;-79
2022/03/10 14:46:37;;;;;;;37.17;24.83;;;;;;;15.92;38.51;96343.38;10269138;28;98719;-79
2022/03/10 14:51:42;;;;;;;40.07;25.73;;;;;;;16.27;38.23;96338.41;10285598;28;96819;-79
2022/03/10 14:56:46;;;;;;;36.13;24.17;;;;;;;16.45;37.41;96330.97;10268136;28;98736;-80
2022/03/10 15:01:48;;;;;;;38.88;24.17;;;;;;;16.58;37.01;96328.50;10270702;28;98730;-79
2022/03/10 15:06:56;;;;;;;37.10;23.50;;;;;;;16.70;36.86;96320.13;10275548;28;97481;-79
2022/03/10 15:12:11;;;;;;;35.78;24.00;;;;;;;16.75;36.49;96320.44;10273610;28;98591;-79
2022/03/10 15:17:15;;;;;;;34.95;24.20;;;;;;;16.76;36.12;96314.13;10273688;28;99649;-79
2022/03/10 15:22:19;;;;;;;36.37;23.43;;;;;;;16.53;35.80;96322.94;10284743;28;96923;-79
2022/03/10 15:27:23;;;;;;;38.47;23.58;;;;;;;16.40;36.07;96314.88;10282508;28;96736;-79
2022/03/10 15:32:26;;;;;;;38.77;24.13;;;;;;;16.34;36.02;96311.13;10292534;28;97129;-79
2022/03/10 15:37:31;;;;;;;35.20;22.17;;;;;;;16.44;36.50;96306.41;10269623;28;97829;-79
2022/03/10 15:42:33;;;;;;;;;;;;;;;16.61;37.02;96296.47;10282483;28;96830;-79
2022/03/10 15:47:36;;;;;;;36.55;23.20;;;;;;;16.70;36.82;96289.28;10286824;28;96944;-79
2022/03/10 15:52:41;;;;;;;35.85;23.10;;;;;;;16.79;36.35;96290.84;10279039;28;98356;-79
2022/03/10 15:57:44;;;;;;;;;;;;;;;16.95;36.70;96276.63;10270060;28;104448;-79
2022/03/10 16:02:47;;;;;;;39.20;23.92;;;;;;;16.73;36.12;96277.56;10288213;28;96847;-79
2022/03/10 16:07:52;;;;;;;36.25;23.55;;;;;;;16.78;35.25;96275.22;10292923;28;101035;-79
2022/03/10 16:12:55;;;;;;;36.45;23.27;;;;;;;16.67;35.13;96273.00;10279815;28;96880;-79
2022/03/10 16:17:58;;;;;;;34.63;22.08;;;;;;;16.48;35.17;96272.56;10282375;28;97457;-79
2022/03/10 16:23:03;;;;;;;35.97;22.17;;;;;;;16.37;35.06;96278.31;10279636;28;96928;-79
2022/03/10 16:28:06;;;;;;;33.60;20.35;;;;;;;16.22;35.49;96276.53;10276666;28;97204;-79
2022/03/10 16:33:08;;;;;;;35.90;22.08;;;;;;;15.97;35.44;96267.25;10290671;28;96869;-79
2022/03/10 16:38:14;;;;;;;34.10;20.95;;;;;;;15.82;35.94;96269.84;10286514;28;97023;-79
2022/03/10 16:43:17;;;;;;;37.28;20.98;;;;;;;15.61;36.17;96278.44;10274015;28;97114;-79
2022/03/10 16:48:20;;;;;;;33.30;19.58;;;;;;;15.49;36.68;96276.22;10275156;28;99325;-79
2022/03/10 16:53:24;;;;;;;32.40;20.30;;;;;;;15.40;35.83;96266.72;10260592;28;99310;-80
2022/03/10 16:58:29;;;;;;;;;;;;;;;15.12;37.04;96274.34;10281146;28;97298;-79
2022/03/10 17:03:32;;;;;;;35.40;21.53;;;;;;;14.74;37.54;96267.19;10287842;28;97838;-79
2022/03/10 17:08:38;;;;;;;39.72;23.83;;;;;;;14.22;38.74;96272.97;10285655;28;97550;-79
2022/03/10 17:13:41;;;;;;;33.90;21.73;;;;;;;13.47;39.83;96275.91;10283426;28;98052;-79
2022/03/10 17:18:44;;;;;;;33.95;21.77;;;;;;;12.82;40.95;96277.44;10277613;28;97138;-79
2022/03/10 17:23:49;;;;;;;59.80;37.90;;;;;;;12.63;41.31;96275.94;10277376;28;96912;-79
2022/03/10 17:28:52;;;;;;;178.15;118.45;;;;;;;12.40;41.37;96275.69;10270827;28;97067;-79
2022/03/10 17:33:55;;;;;;;40.05;21.92;;;;;;;12.38;41.71;96281.09;10288237;28;98607;-78
2022/03/10 17:39:00;;;;;;;33.65;20.45;;;;;;;12.29;42.00;96288.09;10277538;28;96861;-79
2022/03/10 17:44:03;;;;;;;36.58;20.75;;;;;;;12.14;42.14;96287.03;10263719;28;97159;-79
2022/03/10 17:49:06;;;;;;;34.08;21.27;;;;;;;11.89;42.28;96279.06;10269656;28;99187;-79
2022/03/10 17:54:11;;;;;;;37.00;19.98;;;;;;;11.72;42.80;96296.44;10281040;28;96966;-79
2022/03/10 17:59:13;;;;;;;37.83;19.95;;;;;;;11.53;43.26;96301.88;10286900;28;97025;-79
2022/03/10 18:04:16;;;;;;;34.47;21.08;;;;;;;11.37;43.61;96299.97;10279967;28;96907;-79
2022/03/10 18:09:20;;;;;;;38.50;22.25;;;;;;;10.97;44.50;96306.44;10274895;28;96844;-79
2022/03/10 18:14:26;;;;;;;38.03;23.23;;;;;;;10.11;45.86;96298.91;10279481;28;96914;-79
2022/03/10 18:19:29;;;;;;;38.95;22.42;;;;;;;9.59;47.65;96305.41;10291081;28;98752;-79
2022/03/10 18:24:33;;;;;;;38.33;22.20;;;;;;;9.22;47.84;96302.66;10268980;28;98975;-78
2022/03/10 18:29:39;;;;;;;37.53;21.87;;;;;;;8.97;48.27;96297.03;10278949;28;97073;-79
2022/03/10 18:34:41;;;;;;;38.00;21.60;;;;;;;8.52;49.39;96298.31;10287728;28;96950;-79
2022/03/10 18:39:46;;;;;;;31.85;18.08;;;;;;;8.43;49.12;96295.69;10267191;28;97743;-79
2022/03/10 18:44:49;;;;;;;32.40;17.58;;;;;;;8.28;49.32;96309.06;10282071;28;96945;-79
2022/03/10 18:49:52;;;;;;;30.20;15.75;;;;;;;8.09;49.59;96302.00;10285641;28;96947;-79
2022/03/10 18:54:56;;;;;;;31.95;17.23;;;;;;;7.96;49.80;96301.41;10267698;28;96790;-79
2022/03/10 18:59:59;;;;;;;33.23;15.97;;;;;;;7.82;50.28;96297.34;10276721;28;96784;-79
2022/03/10 19:05:02;;;;;;;26.48;13.63;;;;;;;7.58;50.49;96298.47;10284196;28;96949;-78
2022/03/10 19:10:08;;;;;;;26.70;14.38;;;;;;;7.23;51.41;96296.16;10267761;28;96922;-79
2022/03/10 19:15:11;;;;;;;19.27;11.73;;;;;;;7.14;51.40;96309.91;10277694;28;97027;-78
2022/03/10 19:20:14;;;;;;;23.75;12.45;;;;;;;7.07;51.48;96309.59;10282519;28;97123;-78
2022/03/10 19:25:20;;;;;;;25.05;12.57;;;;;;;6.79;52.29;96304.00;10264703;28;96865;-78
2022/03/10 19:30:23;;;;;;;21.85;11.45;;;;;;;6.63;52.44;96300.97;10264831;28;96836;-79
2022/03/10 19:35:26;;;;;;;25.27;11.50;;;;;;;6.63;52.39;96298.38;10271041;28;97076;-78
2022/03/10 19:40:30;;;;;;;22.05;10.75;;;;;;;6.33;53.04;96305.03;10265808;28;97663;-78
2022/03/10 19:45:34;;;;;;;20.90;11.80;;;;;;;6.28;52.72;96305.41;10263655;28;97156;-79
2022/03/10 19:50:37;;;;;;;38.70;26.02;;;;;;;6.33;52.79;96299.84;10293831;28;96940;-78
2022/03/10 19:55:48;;;;;;;23.98;14.88;;;;;;;6.24;52.62;96304.00;10279265;28;97299;-79
2022/03/10 20:00:51;;;;;;;21.50;13.68;;;;;;;6.07;52.81;96305.28;10263716;28;96953;-78
2022/03/10 20:05:55;;;;;;;24.60;15.27;;;;;;;6.00;53.32;96298.09;10270886;28;99132;-78
2022/03/10 20:10:59;;;;;;;32.13;16.73;;;;;;;6.06;53.35;96301.03;10268454;28;97084;-78
2022/03/10 20:16:02;;;;;;;27.20;15.65;;;;;;;5.90;53.46;96297.97;10279115;28;96973;-78
2022/03/10 20:21:05;;;;;;;23.85;15.05;;;;;;;5.84;54.16;96299.28;10279658;28;97610;-78
2022/03/10 20:26:09;;;;;;;22.55;14.38;;;;;;;5.66;54.66;96305.84;10271867;28;97736;-78
2022/03/10 20:31:15;;;;;;;19.20;12.50;;;;;;;5.68;53.75;96309.97;10277924;28;101073;-78
2022/03/10 20:36:20;;;;;;;19.88;12.45;;;;;;;5.62;54.30;96307.84;10281984;28;99093;-78
2022/03/10 20:41:25;;;;;;;21.40;13.07;;;;;;;5.52;54.30;96309.47;10280702;28;97784;-79
2022/03/10 20:46:28;;;;;;;21.77;12.40;;;;;;;5.45;54.42;96310.88;10270545;28;97685;-78
2022/03/10 20:51:31;;;;;;;21.70;12.75;;;;;;;5.29;55.08;96312.03;10279211;28;97086;-78
2022/03/10 20:56:36;;;;;;;20.00;11.07;;;;;;;5.07;54.97;96296.41;10275501;28;99092;-78
2022/03/10 21:01:39;;;;;;;19.70;11.75;;;;;;;5.06;54.96;96302.50;10269093;28;97429;-78
2022/03/10 21:06:46;;;;;;;19.85;11.52;;;;;;;5.14;54.99;96305.38;10279082;28;98015;-78
2022/03/10 21:11:53;;;;;;;23.42;13.50;;;;;;;4.91;55.78;96302.69;10277961;28;97063;-78
2022/03/10 21:16:56;;;;;;;27.08;17.20;;;;;;;4.72;55.70;96300.59;10270832;28;97818;-78
2022/03/10 21:21:59;;;;;;;22.35;10.25;;;;;;;4.62;56.03;96298.78;10273143;28;99247;-78
2022/03/10 21:27:04;;;;;;;13.68;9.65;;;;;;;4.51;56.64;96295.22;10271389;28;97687;-78
2022/03/10 21:32:07;;;;;;;14.47;9.83;;;;;;;4.45;56.73;96303.38;10269166;28;98011;-78
2022/03/10 21:37:10;;;;;;;15.73;10.65;;;;;;;4.46;56.40;96288.72;10278206;28;97457;-78
2022/03/10 21:42:14;;;;;;;18.90;11.80;;;;;;;4.51;55.31;96284.84;10288410;28;97042;-78
2022/03/10 21:47:17;;;;;;;20.45;13.52;;;;;;;4.42;55.87;96288.09;10269013;28;97845;-78
2022/03/10 21:52:20;;;;;;;26.98;15.35;;;;;;;4.31;57.25;96275.09;10276615;28;96944;-78
2022/03/10 21:57:24;;;;;;;16.75;12.20;;;;;;;4.05;57.86;96276.91;10272732;28;98656;-78
2022/03/10 22:02:27;;;;;;;14.63;9.57;;;;;;;3.94;58.96;96283.66;10269889;28;97744;-78
2022/03/10 22:07:30;;;;;;;17.58;11.82;;;;;;;3.81;59.77;96273.34;10261315;28;99191;-78
2022/03/10 22:12:35;;;;;;;17.73;10.02;;;;;;;3.81;59.43;96277.66;10284873;28;97010;-77
2022/03/10 22:17:37;;;;;;;17.67;11.35;;;;;;;3.79;59.15;96275.19;10271676;28;97355;-78
2022/03/10 22:22:40;;;;;;;20.95;14.25;;;;;;;3.76;59.33;96274.56;10283524;28;99077;-78
2022/03/10 22:27:45;;;;;;;17.63;9.43;;;;;;;3.67;60.12;96265.69;10276222;28;96848;-78
2022/03/10 22:32:48;;;;;;;15.43;9.18;;;;;;;3.54;61.01;96263.13;10282689;28;96946;-78
2022/03/10 22:37:51;;;;;;;13.48;8.45;;;;;;;3.55;59.81;96271.69;10276672;28;97047;-78
2022/03/10 22:42:55;;;;;;;16.08;8.43;;;;;;;3.53;60.66;96263.22;10291057;28;99730;-78
2022/03/10 22:47:58;;;;;;;14.38;8.90;;;;;;;3.53;60.00;96269.22;10285569;28;97053;-78
2022/03/10 22:58:22;;;;;;;14.57;9.52;;;;;;;3.55;58.82;96261.38;10291578;28;96892;-78
2022/03/10 23:03:25;;;;;;;26.52;16.33;;;;;;;3.48;59.37;96260.13;10272823;28;101065;-79
2022/03/10 23:08:29;;;;;;;18.20;10.60;;;;;;;3.22;60.48;96263.53;10288497;28;100899;-78
2022/03/10 23:13:33;;;;;;;22.65;13.48;;;;;;;3.11;59.91;96262.59;10290678;28;98319;-78
2022/03/10 23:18:36;;;;;;;22.80;13.85;;;;;;;3.06;59.93;96250.78;10283756;28;97218;-78
2022/03/10 23:23:39;;;;;;;20.17;12.60;;;;;;;3.05;59.78;96249.16;10272936;28;97159;-78